createdAt,value
2018-12-01T00:00:52.823Z,40.20
2018-12-01T00:03:24.924Z,41.13
2018-12-01T00:05:56.959Z,40.67
2018-12-01T00:08:28.997Z,39.80
2018-12-01T00:11:01.057Z,38.88
2018-12-01T00:13:33.195Z,47.10
2018-12-01T00:16:05.370Z,47.50
2018-12-01T00:18:37.395Z,46.68
2018-12-01T00:21:09.980Z,46.28
2018-12-01T00:23:42.021Z,47.80
2018-12-01T00:26:14.171Z,47.20
2018-12-01T00:28:46.155Z,47.90
2018-12-01T00:31:18.270Z,43.03
2018-12-01T00:33:50.671Z,39.37
2018-12-01T00:36:22.683Z,43.83
2018-12-01T00:38:54.733Z,45.50
2018-12-01T00:41:26.723Z,45.93
2018-12-01T00:43:58.625Z,43.00
2018-12-01T00:46:30.587Z,45.53
2018-12-01T00:49:02.511Z,50.07
2018-12-01T00:51:34.477Z,46.00
2018-12-01T00:54:06.760Z,49.40
2018-12-01T00:56:38.742Z,46.33
2018-12-01T00:59:10.751Z,47.17
2018-12-01T01:01:42.729Z,42.10
2018-12-01T01:04:14.597Z,42.63
2018-12-01T01:06:46.590Z,44.07
2018-12-01T01:09:18.420Z,39.57
2018-12-01T01:11:50.429Z,44.30
2018-12-01T01:14:22.530Z,46.93
2018-12-01T01:16:54.572Z,36.83
2018-12-01T01:19:26.472Z,40.77
2018-12-01T01:21:58.445Z,42.13
2018-12-01T01:24:30.299Z,37.13
2018-12-01T01:27:02.170Z,41.87
2018-12-01T01:29:34.038Z,37.77
2018-12-01T01:32:06.010Z,43.77
2018-12-01T01:34:38.012Z,40.93
2018-12-01T01:37:09.911Z,37.37
2018-12-01T01:39:41.897Z,35.57
2018-12-01T01:42:14.003Z,35.90
2018-12-01T01:44:45.905Z,37.07
2018-12-01T01:47:17.922Z,35.33
2018-12-01T01:49:49.855Z,38.00
2018-12-01T01:52:21.826Z,32.43
2018-12-01T01:54:53.961Z,36.90
2018-12-01T01:57:26.003Z,39.33
2018-12-01T01:59:57.912Z,33.70
2018-12-01T02:02:29.976Z,31.53
2018-12-01T02:05:01.939Z,28.17
2018-12-01T02:07:33.955Z,33.67
2018-12-01T02:10:05.799Z,36.93
2018-12-01T02:12:37.741Z,33.70
2018-12-01T02:15:10.695Z,32.67
2018-12-01T02:17:42.696Z,32.23
2018-12-01T02:20:16.581Z,32.07
2018-12-01T02:22:48.655Z,35.77
2018-12-01T02:25:20.946Z,40.07
2018-12-01T02:27:52.995Z,35.50
2018-12-01T02:30:24.983Z,41.73
2018-12-01T02:32:56.882Z,41.97
2018-12-01T02:35:30.858Z,43.37
2018-12-01T02:38:02.807Z,44.10
2018-12-01T02:40:34.786Z,39.53
2018-12-01T02:43:07.681Z,40.70
2018-12-01T02:45:48.962Z,40.30
2018-12-01T02:48:20.890Z,41.67
2018-12-01T02:50:52.726Z,39.63
2018-12-01T02:53:24.687Z,34.50
2018-12-01T02:55:56.909Z,33.63
2018-12-01T02:58:28.861Z,33.43
2018-12-01T03:01:00.685Z,31.37
2018-12-01T03:03:32.670Z,37.03
2018-12-01T03:06:04.590Z,30.97
2018-12-01T03:08:36.586Z,32.73
2018-12-01T03:11:08.416Z,34.70
2018-12-01T03:13:40.405Z,37.87
2018-12-01T03:16:13.854Z,40.30
2018-12-01T03:18:46.013Z,39.93
2018-12-01T03:21:17.909Z,38.07
2018-12-01T03:23:49.848Z,32.97
2018-12-01T03:26:21.772Z,32.87
2018-12-01T03:28:53.703Z,34.87
2018-12-01T03:31:25.559Z,36.87
2018-12-01T03:33:57.891Z,35.03
2018-12-01T03:36:29.840Z,37.83
2018-12-01T03:39:01.817Z,42.03
2018-12-01T03:41:33.748Z,44.77
2018-12-01T03:44:05.776Z,49.07
2018-12-01T03:46:37.678Z,54.67
2018-12-01T03:49:09.771Z,50.87
2018-12-01T03:51:41.667Z,49.13
2018-12-01T03:54:13.632Z,50.03
2018-12-01T03:56:45.733Z,47.17
2018-12-01T03:59:17.665Z,48.00
2018-12-01T04:01:49.606Z,50.43
2018-12-01T04:04:21.654Z,49.57
2018-12-01T04:06:53.508Z,47.80
2018-12-01T04:09:26.192Z,46.50
2018-12-01T04:11:58.094Z,44.83
2018-12-01T04:14:30.107Z,43.73
2018-12-01T04:17:02.117Z,43.27
2018-12-01T04:19:34.240Z,51.07
2018-12-01T04:22:06.146Z,45.60
2018-12-01T04:24:38.144Z,45.77
2018-12-01T04:27:10.205Z,44.03
2018-12-01T04:29:42.180Z,47.37
2018-12-01T04:32:14.143Z,44.47
2018-12-01T04:34:46.468Z,43.87
2018-12-01T04:37:18.518Z,43.90
2018-12-01T04:39:51.897Z,39.50
2018-12-01T04:42:23.949Z,39.40
2018-12-01T04:44:55.895Z,38.30
2018-12-01T04:47:27.746Z,37.00
2018-12-01T04:49:59.860Z,40.33
2018-12-01T04:52:31.742Z,40.47
2018-12-01T04:55:04.842Z,42.43
2018-12-01T04:57:36.265Z,40.90
2018-12-01T05:00:11.136Z,41.10
2018-12-01T05:02:43.050Z,45.80
2018-12-01T05:05:18.972Z,41.43
2018-12-01T05:07:50.889Z,42.43
2018-12-01T05:10:23.956Z,43.27
2018-12-01T05:12:56.767Z,37.97
2018-12-01T05:15:31.645Z,35.67
2018-12-01T05:18:03.794Z,36.67
2018-12-01T05:20:35.908Z,35.07
2018-12-01T05:23:09.217Z,37.87
2018-12-01T05:25:41.255Z,37.90
2018-12-01T05:28:13.086Z,36.83
2018-12-01T05:30:45.765Z,31.80
2018-12-01T05:33:17.682Z,33.77
2018-12-01T05:35:50.209Z,32.83
2018-12-01T05:38:23.584Z,33.83
2018-12-01T05:40:56.519Z,33.13
2018-12-01T05:43:28.417Z,37.87
2018-12-01T05:46:00.440Z,36.43
2018-12-01T05:48:32.356Z,33.67
2018-12-01T05:51:04.684Z,38.07
2018-12-01T05:53:36.546Z,35.23
2018-12-01T05:56:09.278Z,32.97
2018-12-01T05:58:41.299Z,31.83
2018-12-01T06:01:13.304Z,35.23
2018-12-01T06:03:45.142Z,32.47
2018-12-01T06:06:17.298Z,29.97
2018-12-01T06:08:49.208Z,26.20
2018-12-01T06:11:21.860Z,29.37
2018-12-01T06:13:54.043Z,25.40
2018-12-01T06:16:26.156Z,27.97
2018-12-01T06:18:58.196Z,33.17
2018-12-01T06:21:30.218Z,33.63
2018-12-01T06:24:02.542Z,33.37
2018-12-01T06:26:34.506Z,36.47
2018-12-01T06:29:06.401Z,38.30
2018-12-01T06:31:38.473Z,39.10
2018-12-01T06:34:10.294Z,38.40
2018-12-01T06:36:42.537Z,36.40
2018-12-01T06:39:14.712Z,37.53
2018-12-01T06:41:47.454Z,38.50
2018-12-01T06:44:19.285Z,31.87
2018-12-01T06:46:51.382Z,38.17
2018-12-01T06:49:23.304Z,32.97
2018-12-01T06:51:55.495Z,31.10
2018-12-01T06:54:27.317Z,32.60
2018-12-01T06:56:59.460Z,25.80
2018-12-01T06:59:31.502Z,28.03
2018-12-01T07:02:03.530Z,29.10
2018-12-01T07:04:35.373Z,30.00
2018-12-01T07:07:07.655Z,23.20
2018-12-01T07:09:39.537Z,25.57
2018-12-01T07:12:11.490Z,26.60
2018-12-01T07:14:43.365Z,28.60
2018-12-01T07:17:15.382Z,28.87
2018-12-01T07:19:47.396Z,23.90
2018-12-01T07:22:19.544Z,56.70
2018-12-01T07:24:51.405Z,59.43
2018-12-01T07:27:23.385Z,22.00
2018-12-01T07:29:58.073Z,17.50
2018-12-01T07:32:27.648Z,16.10
2018-12-01T07:34:59.452Z,10.97
2018-12-01T07:37:31.501Z,12.97
2018-12-01T07:40:03.527Z,14.23
2018-12-01T07:42:35.419Z,13.73
2018-12-01T07:45:08.625Z,21.13
2018-12-01T07:47:40.642Z,9.37
2018-12-01T07:50:16.484Z,9.03
2018-12-01T07:52:50.414Z,13.77
2018-12-01T07:55:22.255Z,8.20
2018-12-01T07:57:54.240Z,9.60
2018-12-01T08:00:26.745Z,11.73
2018-12-01T08:02:58.683Z,11.10
2018-12-01T08:05:30.519Z,16.80
2018-12-01T08:08:02.774Z,11.20
2018-12-01T08:10:34.639Z,9.00
2018-12-01T08:13:06.656Z,7.50
2018-12-01T08:15:38.489Z,8.00
2018-12-01T08:18:10.486Z,9.60
2018-12-01T08:20:42.667Z,6.97
2018-12-01T08:23:14.760Z,6.00
2018-12-01T08:25:46.522Z,5.73
2018-12-01T08:28:20.444Z,8.00
2018-12-01T08:30:52.399Z,5.53
2018-12-01T08:33:24.581Z,8.93
2018-12-01T08:35:57.815Z,12.33
2018-12-01T08:38:29.645Z,7.07
2018-12-01T08:41:01.619Z,8.23
2018-12-01T08:43:33.616Z,6.93
2018-12-01T08:46:05.472Z,10.33
2018-12-01T08:48:37.354Z,7.07
2018-12-01T08:51:10.472Z,7.83
2018-12-01T08:53:42.573Z,8.00
2018-12-01T08:56:14.418Z,8.90
2018-12-01T08:58:46.387Z,7.67
2018-12-01T09:01:18.340Z,10.13
2018-12-01T09:03:50.481Z,9.37
2018-12-01T09:06:22.286Z,6.37
2018-12-01T09:08:54.240Z,9.37
2018-12-01T09:11:26.010Z,5.97
2018-12-01T09:13:58.122Z,10.13
2018-12-01T09:16:30.009Z,5.70
2018-12-01T09:19:02.026Z,7.47
2018-12-01T09:21:35.128Z,5.97
2018-12-01T09:24:07.173Z,9.20
2018-12-01T09:26:39.031Z,7.00
2018-12-01T09:29:11.070Z,6.13
2018-12-01T09:31:42.861Z,13.13
2018-12-01T09:34:14.849Z,8.70
2018-12-01T09:36:46.643Z,6.20
2018-12-01T09:39:18.630Z,6.50
2018-12-01T09:41:50.681Z,6.50
2018-12-01T09:44:22.790Z,8.13
2018-12-01T09:46:54.766Z,9.03
2018-12-01T09:49:27.086Z,9.80
2018-12-01T09:51:59.075Z,9.53
2018-12-01T09:54:31.052Z,14.00
2018-12-01T09:57:02.893Z,10.70
2018-12-01T09:59:34.940Z,12.27
2018-12-01T10:02:06.948Z,8.83
2018-12-01T10:04:38.896Z,10.90
2018-12-01T10:07:10.830Z,8.33
2018-12-01T10:09:42.787Z,9.77
2018-12-01T10:12:14.691Z,7.43
2018-12-01T10:14:46.769Z,10.57
2018-12-01T10:17:18.621Z,7.07
2018-12-01T10:19:50.640Z,13.97
2018-12-01T10:22:22.816Z,9.80
2018-12-01T10:24:54.878Z,8.70
2018-12-01T10:27:26.708Z,10.77
2018-12-01T10:29:58.676Z,12.23
2018-12-01T10:32:30.583Z,9.67
2018-12-01T10:35:02.701Z,13.17
2018-12-01T10:37:34.568Z,10.33
2018-12-01T10:40:08.200Z,13.20
2018-12-01T10:42:40.287Z,13.30
2018-12-01T10:45:20.162Z,12.00
2018-12-01T10:47:52.062Z,10.20
2018-12-01T10:50:25.737Z,13.57
2018-12-01T10:52:59.107Z,7.57
2018-12-01T10:55:32.841Z,7.83
2018-12-01T10:58:09.906Z,5.97
2018-12-01T11:00:46.349Z,10.43
2018-12-01T11:03:22.602Z,6.53
2018-12-01T11:05:56.245Z,6.53
2018-12-01T11:08:28.098Z,8.90
2018-12-01T11:11:00.272Z,9.03
2018-12-01T11:13:32.170Z,6.20
2018-12-01T11:16:05.924Z,8.50
2018-12-01T11:18:37.903Z,8.63
2018-12-01T11:21:09.905Z,9.10
2018-12-01T11:23:41.939Z,8.30
2018-12-01T11:26:13.938Z,10.83
2018-12-01T11:28:45.781Z,7.03
2018-12-01T11:31:17.816Z,11.87
2018-12-01T11:33:49.688Z,10.20
2018-12-01T11:36:21.658Z,16.93
2018-12-01T11:38:53.543Z,9.47
2018-12-01T11:41:25.492Z,12.27
2018-12-01T11:43:57.495Z,11.77
2018-12-01T11:46:29.713Z,11.90
2018-12-01T11:49:01.592Z,9.70
2018-12-01T11:51:33.617Z,11.03
2018-12-01T11:54:05.533Z,18.73
2018-12-01T11:56:37.466Z,11.77
2018-12-01T11:59:09.315Z,10.90
2018-12-01T12:01:41.363Z,14.60
2018-12-01T12:04:13.492Z,16.70
2018-12-01T12:06:45.402Z,16.53
2018-12-01T12:09:17.401Z,13.57
2018-12-01T12:11:49.340Z,10.20
2018-12-01T12:14:21.244Z,12.33
2018-12-01T12:16:53.342Z,12.57
2018-12-01T12:19:25.218Z,14.50
2018-12-01T12:21:57.255Z,12.73
2018-12-01T12:24:29.308Z,11.13
2018-12-01T12:27:01.256Z,14.20
2018-12-01T12:29:33.182Z,20.87
2018-12-01T12:32:05.289Z,10.73
2018-12-01T12:34:37.348Z,10.30
2018-12-01T12:37:09.488Z,11.43
2018-12-01T12:39:41.399Z,15.03
2018-12-01T12:42:13.394Z,11.13
2018-12-01T12:44:45.606Z,11.50
2018-12-01T12:47:17.551Z,10.77
2018-12-01T12:49:49.472Z,13.07
2018-12-01T12:52:21.491Z,11.17
2018-12-01T12:54:53.407Z,12.37
2018-12-01T12:57:25.407Z,12.87
2018-12-01T12:59:58.025Z,14.17
2018-12-01T13:02:30.069Z,13.37
2018-12-01T13:05:02.163Z,11.10
2018-12-01T13:07:34.185Z,18.03
2018-12-01T13:10:06.299Z,14.17
2018-12-01T13:12:38.255Z,15.80
2018-12-01T13:15:13.782Z,12.03
2018-12-01T13:17:45.807Z,12.13
2018-12-01T13:20:18.845Z,10.60
2018-12-01T13:22:54.801Z,12.73
2018-12-01T13:25:26.864Z,15.87
2018-12-01T13:28:29.040Z,14.83
2018-12-01T13:31:02.219Z,13.27
2018-12-01T13:33:41.096Z,15.17
2018-12-01T13:36:13.015Z,14.53
2018-12-01T13:38:45.022Z,13.37
2018-12-01T13:41:17.073Z,16.37
2018-12-01T13:43:49.224Z,10.77
2018-12-01T13:46:21.438Z,12.07
2018-12-01T13:48:53.564Z,17.07
2018-12-01T13:51:25.532Z,11.67
2018-12-01T13:53:57.536Z,10.93
2018-12-01T13:56:30.765Z,17.03
2018-12-01T13:59:02.735Z,15.67
2018-12-01T14:01:34.681Z,14.93
2018-12-01T14:04:06.964Z,16.07
2018-12-01T14:06:39.289Z,20.13
2018-12-01T14:09:11.787Z,22.47
2018-12-01T14:11:43.743Z,17.20
2018-12-01T14:14:15.964Z,20.97
2018-12-01T14:16:47.815Z,21.67
2018-12-01T14:19:20.504Z,19.70
2018-12-01T14:21:52.597Z,19.23
2018-12-01T14:24:24.862Z,19.00
2018-12-01T14:26:57.041Z,16.43
2018-12-01T14:29:28.983Z,18.10
2018-12-01T14:32:00.981Z,16.00
2018-12-01T14:34:33.130Z,15.63
2018-12-01T14:37:05.251Z,17.87
2018-12-01T14:39:37.333Z,15.47
2018-12-01T14:42:09.249Z,18.37
2018-12-01T14:44:41.213Z,18.60
2018-12-01T14:47:13.261Z,14.10
2018-12-01T14:49:45.254Z,14.77
2018-12-01T14:52:17.459Z,10.50
2018-12-01T14:54:49.398Z,10.20
2018-12-01T14:57:22.711Z,4.03
2018-12-01T14:59:54.421Z,5.22
2018-12-01T15:02:26.295Z,6.37
2018-12-01T15:04:58.345Z,8.00
2018-12-01T15:07:30.384Z,5.17
2018-12-01T15:10:02.333Z,6.85
2018-12-01T15:12:35.136Z,6.03
2018-12-01T15:15:07.827Z,7.22
2018-12-01T15:17:39.930Z,11.65
2018-12-01T15:20:14.394Z,6.62
2018-12-01T15:22:47.032Z,13.20
2018-12-01T15:25:20.861Z,22.95
2018-12-01T15:27:53.017Z,6.85
2018-12-01T15:30:28.228Z,12.07
2018-12-01T15:33:12.485Z,13.20
2018-12-01T15:35:45.626Z,7.50
2018-12-01T15:38:17.824Z,8.25
2018-12-01T15:40:51.694Z,5.70
2018-12-01T15:43:25.378Z,5.53
2018-12-01T15:45:57.597Z,7.70
2018-12-01T15:48:29.687Z,5.90
2018-12-01T15:51:01.991Z,9.63
2018-12-01T15:53:33.868Z,10.08
2018-12-01T15:56:05.938Z,12.23
2018-12-01T15:58:37.843Z,5.05
2018-12-01T16:01:09.830Z,4.92
2018-12-01T16:03:42.629Z,6.20
2018-12-01T16:06:16.327Z,4.25
2018-12-01T16:08:48.709Z,8.30
2018-12-01T16:11:20.735Z,11.03
2018-12-01T16:13:52.740Z,5.70
2018-12-01T16:16:25.106Z,5.97
2018-12-01T16:18:58.366Z,5.67
2018-12-01T16:21:30.767Z,5.05
2018-12-01T16:24:02.736Z,10.60
2018-12-01T16:26:35.925Z,11.43
2018-12-01T16:29:08.482Z,11.68
2018-12-01T16:31:40.700Z,12.07
2018-12-01T16:34:12.827Z,12.88
2018-12-01T16:36:45.407Z,9.33
2018-12-01T16:39:17.366Z,13.25
2018-12-01T16:41:50.224Z,12.20
2018-12-01T16:44:22.247Z,9.30
2018-12-01T16:46:54.760Z,10.03
2018-12-01T16:49:26.808Z,10.28
2018-12-01T16:51:59.075Z,7.33
2018-12-01T16:54:31.030Z,5.62
2018-12-01T16:57:03.917Z,11.55
2018-12-01T16:59:35.921Z,10.93
2018-12-01T17:02:08.037Z,14.23
2018-12-01T17:04:40.012Z,12.82
2018-12-01T17:07:12.117Z,9.10
2018-12-01T17:09:44.449Z,7.15
2018-12-01T17:12:16.466Z,7.87
2018-12-01T17:14:50.196Z,10.10
2018-12-01T17:17:24.387Z,10.70
2018-12-01T17:19:56.614Z,10.75
2018-12-01T17:22:28.831Z,11.22
2018-12-01T17:25:00.788Z,16.25
2018-12-01T17:27:32.769Z,23.18
2018-12-01T17:30:05.355Z,13.80
2018-12-01T17:32:37.617Z,11.95
2018-12-01T17:35:15.106Z,13.38
2018-12-01T17:37:52.632Z,8.33
2018-12-01T17:40:32.341Z,9.60
2018-12-01T17:43:04.349Z,12.93
2018-12-01T17:45:36.238Z,10.45
2018-12-01T17:48:08.676Z,12.80
2018-12-01T17:50:42.604Z,16.23
2018-12-01T17:53:15.081Z,12.82
2018-12-01T17:55:47.227Z,13.70
2018-12-01T17:58:19.422Z,19.92
2018-12-01T18:00:51.378Z,14.23
2018-12-01T18:03:23.474Z,20.32
2018-12-01T18:05:55.576Z,14.47
2018-12-01T18:08:28.220Z,17.57
2018-12-01T18:11:00.845Z,16.52
2018-12-01T18:13:32.949Z,8.33
2018-12-01T18:16:04.856Z,11.60
2018-12-01T18:18:36.898Z,11.00
2018-12-01T18:21:09.341Z,8.03
2018-12-01T18:23:41.691Z,19.42
2018-12-01T18:26:13.823Z,12.85
2018-12-01T18:28:49.076Z,10.50
2018-12-01T18:31:25.659Z,17.48
2018-12-01T18:34:11.836Z,13.05
2018-12-01T18:36:44.374Z,11.00
2018-12-01T18:39:19.554Z,13.10
2018-12-01T18:41:51.541Z,10.35
2018-12-01T18:44:23.785Z,9.90
2018-12-01T18:46:57.840Z,10.18
2018-12-01T18:49:29.963Z,8.83
2018-12-01T18:52:02.614Z,12.10
2018-12-01T18:54:34.711Z,10.93
2018-12-01T18:57:06.690Z,18.07
2018-12-01T18:59:38.761Z,9.70
2018-12-01T19:02:11.084Z,8.30
2018-12-01T19:04:43.213Z,8.88
2018-12-01T19:07:15.432Z,8.03
2018-12-01T19:09:47.735Z,11.83
2018-12-01T19:12:20.272Z,10.48
2018-12-01T19:14:52.764Z,6.58
2018-12-01T19:17:25.553Z,8.23
2018-12-01T19:19:59.261Z,10.13
2018-12-01T19:22:33.383Z,11.78
2018-12-01T19:25:05.621Z,10.28
2018-12-01T19:27:37.797Z,7.45
2018-12-01T19:30:13.966Z,6.35
2018-12-01T19:32:48.513Z,8.60
2018-12-01T19:35:20.842Z,8.98
2018-12-01T19:37:55.157Z,8.53
2018-12-01T19:40:32.538Z,10.08
2018-12-01T19:43:05.984Z,9.00
2018-12-01T19:45:38.366Z,10.50
2018-12-01T19:48:12.139Z,9.58
2018-12-01T19:50:44.809Z,10.48
2018-12-01T19:53:18.145Z,19.82
2018-12-01T19:55:52.262Z,11.73
2018-12-01T19:58:27.831Z,14.35
2018-12-01T20:01:01.158Z,11.05
2018-12-01T20:03:34.502Z,10.55
2018-12-01T20:06:07.119Z,9.93
2018-12-01T20:08:39.467Z,8.48
2018-12-01T20:11:12.226Z,11.63
2018-12-01T20:13:46.030Z,7.72
2018-12-01T20:16:37.826Z,8.33
2018-12-01T20:19:10.500Z,11.83
2018-12-01T20:21:42.553Z,11.97
2018-12-01T20:24:14.717Z,9.48
2018-12-01T20:26:47.014Z,11.60
2018-12-01T20:29:18.881Z,14.90
2018-12-01T20:31:50.946Z,9.65
2018-12-01T20:34:23.068Z,11.15
2018-12-01T20:36:59.180Z,10.13
2018-12-01T20:39:34.211Z,13.30
2018-12-01T20:42:06.576Z,10.30
2018-12-01T20:44:38.713Z,12.28
2018-12-01T20:47:10.728Z,11.57
2018-12-01T20:49:42.712Z,14.53
2018-12-01T20:52:14.875Z,14.35
2018-12-01T20:54:49.229Z,15.80
2018-12-01T20:57:30.176Z,16.95
2018-12-01T21:00:02.784Z,13.55
2018-12-01T21:02:35.630Z,16.60
2018-12-01T21:05:08.778Z,19.27
2018-12-01T21:07:41.695Z,20.27
2018-12-01T21:10:20.279Z,19.20
2018-12-01T21:12:52.354Z,16.05
2018-12-01T21:15:26.245Z,16.25
2018-12-01T21:17:58.285Z,18.05
2018-12-01T21:20:30.339Z,20.15
2018-12-01T21:23:06.616Z,19.60
2018-12-01T21:25:46.985Z,21.62
2018-12-01T21:28:23.449Z,20.68
2018-12-01T21:30:55.982Z,19.57
2018-12-01T21:33:31.933Z,20.82
2018-12-01T21:36:04.855Z,24.18
2018-12-01T21:38:40.150Z,22.17
2018-12-01T21:41:12.429Z,24.67
2018-12-01T21:43:44.933Z,24.80
2018-12-01T21:46:17.431Z,24.32
2018-12-01T21:48:49.766Z,29.20
2018-12-01T21:51:22.147Z,26.50
2018-12-01T21:53:54.589Z,27.13
2018-12-01T21:56:28.316Z,28.77
2018-12-01T21:59:00.809Z,27.40
2018-12-01T22:01:33.172Z,26.35
2018-12-01T22:04:06.552Z,26.62
2018-12-01T22:06:38.815Z,25.70
2018-12-01T22:09:12.005Z,30.70
2018-12-01T22:11:44.119Z,31.68
2018-12-01T22:14:16.341Z,27.80
2018-12-01T22:16:48.510Z,28.52
2018-12-01T22:19:20.748Z,29.18
2018-12-01T22:21:53.089Z,34.05
2018-12-01T22:24:25.124Z,30.75
2018-12-01T22:26:57.063Z,34.90
2018-12-01T22:29:29.128Z,35.50
2018-12-01T22:32:01.336Z,31.33
2018-12-01T22:34:33.567Z,32.45
2018-12-01T22:37:05.716Z,32.58
2018-12-01T22:39:37.746Z,31.15
2018-12-01T22:42:09.733Z,30.08
2018-12-01T22:44:41.941Z,35.78
2018-12-01T22:47:13.993Z,32.10
2018-12-01T22:49:46.066Z,29.00
2018-12-01T22:52:17.991Z,33.28
2018-12-01T22:54:49.980Z,32.38
2018-12-01T22:57:25.114Z,32.48
2018-12-01T22:59:57.199Z,31.45
2018-12-01T23:02:29.206Z,32.13
2018-12-01T23:05:05.313Z,31.40
2018-12-01T23:07:37.230Z,33.95
2018-12-01T23:10:15.004Z,32.60
2018-12-01T23:12:49.652Z,33.02
2018-12-01T23:15:21.817Z,35.10
2018-12-01T23:17:57.747Z,34.05
2018-12-01T23:20:29.894Z,34.33
2018-12-01T23:23:02.008Z,34.43
2018-12-01T23:25:34.383Z,39.15
2018-12-01T23:28:06.398Z,32.05
2018-12-01T23:30:39.187Z,34.70
2018-12-01T23:33:14.363Z,37.80
2018-12-01T23:35:46.515Z,34.65
2018-12-01T23:38:18.500Z,36.65
2018-12-01T23:40:50.505Z,35.70
2018-12-01T23:43:22.735Z,36.27
2018-12-01T23:45:55.102Z,37.85
2018-12-01T23:48:27.419Z,35.63
2018-12-01T23:51:00.091Z,38.17
2018-12-01T23:53:32.424Z,40.57
2018-12-01T23:56:04.765Z,35.07
2018-12-01T23:58:37.253Z,37.87
